Data for 04/25/2005

Time Sea-Level Adjusted Pressure Absolute Pressure Temperature Relative Humidity Dew Point   
(mb) (inHg) (mb) (inHg) (C) (F) (%) (C) (F)
00:05 1016 30 845 24.95 9 48.1 52 -0.4 31.2
00:10 1016 30 845 24.95 8.8 47.9 52 -0.5 31
00:15 1016 30 845 24.95 8.8 47.8 51 -0.6 30.8
00:20 1016 30 845 24.95 9 48.1 50 -0.7 30.7
00:25 1016 30 845 24.95 9.1 48.4 50 -0.7 30.8
00:30 1016 30 845 24.95 8.9 48 52 -0.5 31.1
00:35 1016 30 845 24.95 8.5 47.3 53 -0.4 31.3
00:40 1016 30 845 24.95 8.2 46.8 54 -0.5 31
00:45 1016 30 845 24.95 8.1 46.5 55 -0.5 31.2
00:50 1016 30 845 24.95 7.9 46.2 55 -0.5 31.2
00:55 1016 30 845 24.95 7.9 46.2 56 -0.4 31.3
01:00 1016 30 845 24.95 7.7 45.9 56 -0.4 31.3
01:05 1016 30 845 24.95 7.7 45.9 56 -0.5 31.1
01:10 1016 30 846 24.98 7.7 45.9 56 -0.5 31
01:15 1016 30 846 24.98 7.8 46.1 55 -0.6 30.9
01:20 1016 30 846 24.98 7.8 46.1 54 -0.8 30.6
01:25 1016 30 846 24.98 7.8 46 55 -0.7 30.8
01:30 1016 30 846 24.98 7.6 45.7 57 -0.5 31.2
01:35 1016 30 846 24.98 7.3 45.1 56 -0.8 30.6
01:40 1016 30 846 24.98 7.5 45.5 55 -1 30.1
01:45 1016 30 846 24.98 7.8 46.1 54 -0.8 30.6
01:50 1016 30 846 24.98 7.8 46.1 54 -0.8 30.6
01:55 1017 30.03 846 24.98 7.6 45.6 55 -0.8 30.5
02:00 1016 30 846 24.98 8 46.4 52 -1.3 29.7
02:05 1016 30 846 24.98 7.8 46 56 -0.4 31.3
02:10 1017 30.03 846 24.98 7 44.5 57 -0.9 30.4
02:15 1017 30.03 846 24.98 7 44.6 55 -1.4 29.5
02:20 1017 30.03 846 24.98 7.5 45.5 53 -1.3 29.6
02:25 1017 30.03 846 24.98 7.5 45.6 57 -0.4 31.3
02:30 1017 30.03 846 24.98 6.4 43.5 60 -0.8 30.5
02:35 1017 30.03 846 24.98 6.2 43.2 57 -1.6 29
02:40 1017 30.03 846 24.98 6.5 43.6 55 -1.8 28.7
02:45 1017 30.03 846 24.98 6.7 44.1 55 -1.6 29.1
02:50 1017 30.03 846 24.98 6.5 43.8 57 -1.4 29.5
02:55 1017 30.03 846 24.98 6.5 43.7 56 -1.7 29
03:00 1017 30.03 846 24.98 6.8 44.3 55 -1.5 29.4
03:05 1017 30.03 846 24.98 6.8 44.3 55 -1.5 29.3
03:10 1017 30.03 846 24.98 6.9 44.4 55 -1.6 29.2
03:15 1017 30.03 846 24.98 6.9 44.4 55 -1.5 29.4
03:20 1017 30.03 846 24.98 6.8 44.2 56 -1.5 29.4
03:25 1017 30.03 846 24.98 6.7 44 56 -1.4 29.4
03:30 1017 30.03 846 24.98 6.5 43.7 57 -1.3 29.7
03:35 1017 30.03 846 24.98 6.3 43.4 58 -1.2 29.8
03:40 1017 30.03 846 24.98 6.1 43 60 -1.1 30
03:45 1017 30.03 846 24.98 5.9 42.6 61 -1 30.1
03:50 1017 30.03 846 24.98 5.9 42.6 61 -1.1 30
03:55 1017 30.03 846 24.98 5.8 42.4 61 -1.1 30
04:00 1017 30.03 846 24.98 5.9 42.6 61 -1.1 30
04:05 1017 30.03 846 24.98 5.8 42.5 61 -1.1 30
04:10 1017 30.03 846 24.98 5.9 42.5 61 -1.1 29.9
04:15 1017 30.03 846 24.98 5.9 42.7 61 -1.1 30.1
04:20 1017 30.03 846 24.98 5.9 42.6 61 -1.1 30
04:25 1017 30.03 846 24.98 5.9 42.7 61 -1 30.2
04:30 1017 30.03 846 24.98 5.9 42.6 61 -1 30.2
04:35 1017 30.03 846 24.98 5.7 42.3 62 -0.9 30.4
04:40 1017 30.03 846 24.98 5.6 42.1 62 -1.1 30.1
04:45 1017 30.03 846 24.98 5.8 42.4 61 -1.1 30
04:50 1017 30.03 846 24.98 6 42.8 60 -1.1 30
04:55 1017 30.03 846 24.98 6.1 43 60 -1 30.2
05:00 1017 30.03 846 24.98 6 42.9 60 -1 30.2
05:05 1017 30.03 846 24.98 5.9 42.7 62 -0.8 30.5
05:10 1017 30.03 846 24.98 5.6 42.1 62 -1 30.2
05:15 1017 30.03 846 24.98 5.6 42 63 -0.9 30.4
05:20 1017 30.03 846 24.98 5.1 41.1 66 -0.8 30.5
05:25 1017 30.03 846 24.98 4.7 40.4 67 -1 30.2
05:30 1017 30.03 846 24.98 4.7 40.4 66 -1.1 30
05:35 1017 30.03 846 24.98 4.8 40.7 65 -1.1 30.1
05:40 1017 30.03 846 24.98 4.9 40.8 65 -1.1 30
05:45 1017 30.03 846 24.98 4.9 40.9 65 -1.1 30.1
05:50 1017 30.03 847 25.01 4.8 40.7 66 -1.1 30.1
05:55 1017 30.03 847 25.01 4.7 40.5 66 -1 30.1
06:00 1017 30.03 847 25.01 4.5 40.1 67 -1.2 29.9
06:05 1017 30.03 847 25.01 4.3 39.8 67 -1.2 29.8
06:10 1017 30.03 847 25.01 4.2 39.6 68 -1.3 29.7
06:15 1018 30.06 847 25.01 4.2 39.5 68 -1.3 29.7
06:20 1018 30.06 847 25.01 4.3 39.7 67 -1.3 29.7
06:25 1018 30.06 847 25.01 4.6 40.4 65 -1.4 29.5
06:30 1018 30.06 847 25.01 5 40.9 65 -1.1 30
06:35 1018 30.06 847 25.01 5.2 41.4 63 -1.2 29.8
06:40 1018 30.06 847 25.01 5.5 41.9 62 -1.1 30
06:45 1018 30.06 847 25.01 5.6 42.2 62 -1.1 30
06:50 1018 30.06 847 25.01 5.8 42.5 61 -1.1 30.1
06:55 1018 30.06 847 25.01 5.9 42.7 61 -1.1 30.1
07:00 1018 30.06 847 25.01 6.1 42.9 61 -0.9 30.3
07:05 1018 30.06 847 25.01 6 42.9 61 -0.8 30.6
07:10 1018 30.06 847 25.01 5.9 42.6 62 -0.8 30.6
07:15 1018 30.06 847 25.01 5.7 42.3 63 -0.7 30.7
07:20 1018 30.06 847 25.01 5.5 42 65 -0.6 31
07:25 1018 30.06 847 25.01 5.6 42.1 64 -0.7 30.8
07:30 1018 30.06 847 25.01 5.8 42.4 64 -0.5 31.2
07:35 1018 30.06 847 25.01 6.1 43 62 -0.6 30.9
07:40 1018 30.06 847 25.01 6.3 43.4 61 -0.7 30.8
07:45 1018 30.06 847 25.01 6.5 43.7 60 -0.6 30.8
07:50 1018 30.06 847 25.01 6.5 43.8 60 -0.6 30.9
07:55 1018 30.06 847 25.01 6.8 44.2 59 -0.7 30.7
08:00 1018 30.06 847 25.01 7.2 44.9 57 -0.6 30.9
08:05 1018 30.06 848 25.04 7.6 45.6 57 -0.5 31.2
08:10 1018 30.06 848 25.04 7.4 45.3 55 -0.9 30.3
08:15 1018 30.06 848 25.04 7.4 45.3 56 -0.7 30.7
08:20 1019 30.09 848 25.04 7.4 45.2 56 -0.8 30.6
08:25 1019 30.09 848 25.04 8 46.4 55 -0.6 31
08:30 1019 30.09 848 25.04 8.2 46.8 53 -0.7 30.7
08:35 1019 30.09 848 25.04 8.8 47.9 50 -1.1 30
08:40 1019 30.09 848 25.04 9.2 48.6 50 -0.7 30.7
08:45 1019 30.09 848 25.04 9.8 49.6 48 -0.7 30.8
08:50 1019 30.09 848 25.04 10 49.9 46 -0.9 30.3
08:55 1019 30.09 848 25.04 10.2 50.3 45 -1.1 30
09:00 1019 30.09 848 25.04 10.8 51.4 43 -1.2 29.9
09:05 1019 30.09 848 25.04 11 51.8 44 -0.7 30.7
09:10 1019 30.09 848 25.04 10.2 50.4 46 -0.7 30.7
09:15 1019 30.09 848 25.04 9.5 49 48 -0.8 30.5
09:20 1019 30.09 848 25.04 9.9 49.8 48 -0.7 30.8
09:25 1019 30.09 848 25.04 10.1 50.2 47 -0.7 30.8
09:30 1019 30.09 848 25.04 10.5 51 46 -0.5 31.1
09:35 1019 30.09 848 25.04 11.1 52 45 -0.3 31.4
09:40 1019 30.09 848 25.04 10.7 51.3 47 -0 31.9
09:45 1019 30.09 848 25.04 10.1 50.2 48 -0.4 31.2
09:50 1019 30.09 848 25.04 10.4 50.7 47 -0.3 31.4
09:55 1019 30.09 848 25.04 10.1 50.2 48 -0.4 31.3
10:00 1019 30.09 848 25.04 9.8 49.7 50 -0.1 31.9
10:05 1019 30.09 848 25.04 9.5 49.2 50 -0.3 31.4
10:10 1019 30.09 848 25.04 10.3 50.6 46 -0.8 30.6
10:15 1019 30.09 848 25.04 11.3 52.4 46 0.2 32.3
10:20 1019 30.09 848 25.04 11 51.8 47 0.1 32.2
10:25 1019 30.09 848 25.04 11.3 52.3 45 -0.3 31.5
10:30 1019 30.09 848 25.04 11.2 52.2 46 -0 32
10:35 1019 30.09 848 25.04 11.5 52.8 45 0.2 32.3
10:40 1019 30.09 848 25.04 12.2 54 43 0.1 32.1
10:45 1019 30.09 848 25.04 12.2 54 43 0.1 32.1
10:50 1019 30.09 848 25.04 11.3 52.4 44 -0.3 31.4
10:55 1019 30.09 848 25.04 11.6 52.8 44 -0.1 31.8
11:00 1019 30.09 848 25.04 12.2 54 45 0.5 33
11:05 1019 30.09 848 25.04 12.6 54.7 41 -0.3 31.5
11:10 1019 30.09 848 25.04 13.7 56.6 37 -0.7 30.8
11:15 1019 30.09 848 25.04 13.1 55.6 40 0 32.1
11:20 1019 30.09 848 25.04 12.4 54.2 43 0.1 32.2
11:25 1019 30.09 848 25.04 12.5 54.6 42 0.1 32.2
11:30 1019 30.09 848 25.04 12.6 54.6 41 -0.1 31.8
11:35 1019 30.09 848 25.04 11.9 53.5 44 -0 31.9
11:40 1019 30.09 848 25.04 11.4 52.6 45 0 32
11:45 1019 30.09 848 25.04 12 53.6 43 -0.1 31.7
11:50 1019 30.09 848 25.04 12 53.5 43 -0.3 31.4
11:55 1019 30.09 848 25.04 12.4 54.2 41 -0.5 31.1
12:00 1019 30.09 848 25.04 13.5 56.3 38 -0.5 31.1
12:05 1019 30.09 848 25.04 13 55.4 38 -0.8 30.6
12:10 1019 30.09 848 25.04 12.5 54.6 40 -0.5 31
12:15 1019 30.09 848 25.04 13.7 56.6 35 -1.5 29.4
12:20 1019 30.09 848 25.04 13.9 57 34 -1.5 29.4
12:25 1019 30.09 848 25.04 14.7 58.5 34 -0.8 30.5
12:30 1019 30.09 848 25.04 14.6 58.3 35 -0.6 30.9
12:35 1019 30.09 848 25.04 13.8 56.9 37 -0.6 31
12:40 1019 30.09 848 25.04 13.9 56.9 34 -1.6 29.2
12:45 1019 30.09 848 25.04 14.8 58.6 32 -1.7 29
12:50 1019 30.09 848 25.04 14.9 58.9 32 -1.5 29.2
12:55 1019 30.09 848 25.04 15.4 59.6 31 -1.5 29.3
13:00 1019 30.09 848 25.04 15.3 59.5 31 -1.5 29.4
13:05 1019 30.09 848 25.04 14.8 58.6 32 -1.9 28.6
13:10 1019 30.09 848 25.04 14.5 58.1 33 -1.6 29.1
13:15 1019 30.09 848 25.04 14.9 58.9 31 -1.8 28.8
13:20 1019 30.09 848 25.04 14 57.1 31 -2.7 27.2
13:25 1018 30.06 848 25.04 14.4 57.8 30 -3 26.6
13:30 1018 30.06 848 25.04 15.3 59.6 29 -2.4 27.7
13:35 1018 30.06 848 25.04 16 60.8 26 -3.4 25.9
13:40 1018 30.06 848 25.04 16.3 61.4 26 -2.9 26.7
13:45 1018 30.06 848 25.04 15.8 60.5 26 -3.6 25.6
13:50 1018 30.06 848 25.04 16.3 61.4 26 -3.4 26
13:55 1018 30.06 848 25.04 16.5 61.8 25 -3.4 25.9
14:00 1018 30.06 848 25.04 16.7 62 24 -4 24.8
14:05 1018 30.06 848 25.04 16.4 61.5 25 -3.8 25.2
14:10 1018 30.06 847 25.01 16 60.7 26 -3.4 25.9
14:15 1018 30.06 847 25.01 16.2 61.1 24 -4.4 24.1
14:20 1018 30.06 847 25.01 16.9 62.4 22 -5 23
14:25 1018 30.06 847 25.01 17.2 63 23 -4.2 24.4
14:30 1018 30.06 847 25.01 16.9 62.5 22 -5 23
14:35 1018 30.06 847 25.01 17.3 63.1 22 -4.8 23.4
14:40 1018 30.06 847 25.01 16.8 62.3 22 -4.7 23.5
14:45 1018 30.06 847 25.01 16.5 61.6 22 -5.2 22.7
14:50 1018 30.06 847 25.01 16.1 61 22 -5.4 22.3
14:55 1018 30.06 848 25.04 16.7 62 23 -4.4 24
15:00 1018 30.06 847 25.01 16.9 62.4 22 -4.6 23.7
15:05 1018 30.06 847 25.01 16.7 62 23 -4.7 23.6
15:10 1018 30.06 847 25.01 16.8 62.2 23 -4.3 24.3
15:15 1018 30.06 847 25.01 16.5 61.6 23 -4.5 23.8
15:20 1018 30.06 847 25.01 16.8 62.2 22 -4.8 23.3
15:25 1018 30.06 847 25.01 17.3 63.2 23 -4.1 24.6
15:30 1018 30.06 847 25.01 16.8 62.3 24 -3.5 25.7
15:35 1018 30.06 847 25.01 17.2 62.9 24 -3.6 25.6
15:40 1018 30.06 847 25.01 17.3 63.2 23 -3.8 25.2
15:45 1018 30.06 847 25.01 16.8 62.2 24 -4 24.8
15:50 1018 30.06 847 25.01 16.6 61.8 23 -4.6 23.7
15:55 1018 30.06 847 25.01 16.9 62.4 23 -4.4 24.1
16:00 1018 30.06 847 25.01 17.3 63.1 22 -4.3 24.3
16:05 1018 30.06 847 25.01 17.2 62.9 21 -5 23
16:10 1018 30.06 847 25.01 17.4 63.3 22 -4.7 23.5
16:15 1018 30.06 847 25.01 17.1 62.8 23 -4.3 24.2
16:20 1018 30.06 847 25.01 17.5 63.4 23 -3.7 25.4
16:25 1018 30.06 847 25.01 17.7 63.8 22 -4 24.9
16:30 1018 30.06 847 25.01 17.9 64.1 21 -4.4 24.1
16:35 1018 30.06 847 25.01 18.2 64.8 22 -3.9 24.9
16:40 1018 30.06 847 25.01 18 64.4 22 -4 24.8
16:45 1018 30.06 847 25.01 17.9 64.3 22 -4 24.8
16:50 1018 30.06 847 25.01 17.3 63.2 22 -4.2 24.4
16:55 1018 30.06 847 25.01 17.2 62.9 22 -4.5 23.9
17:00 1018 30.06 847 25.01 17.3 63.2 22 -4.6 23.7
17:05 1018 30.06 847 25.01 17.5 63.6 21 -5 23
17:10 1018 30.06 847 25.01 17.1 62.8 23 -4.2 24.4
17:15 1018 30.06 847 25.01 17.4 63.4 22 -4.5 23.9
17:20 1017 30.03 847 25.01 16.9 62.4 22 -4.8 23.3
17:25 1017 30.03 847 25.01 16.7 62.1 23 -4.4 24.1
17:30 1017 30.03 847 25.01 17.2 62.9 22 -4.4 24
17:35 1017 30.03 847 25.01 17.4 63.3 21 -5.1 22.9
17:40 1017 30.03 847 25.01 17.2 63 21 -5.2 22.7
17:45 1017 30.03 847 25.01 17.3 63.1 22 -4.8 23.4
17:50 1017 30.03 847 25.01 17.4 63.2 22 -4.4 24.2
17:55 1017 30.03 847 25.01 17.2 63 20 -5.5 22.1
18:00 1017 30.03 847 25.01 17.3 63.1 19 -6.2 20.8
18:05 1017 30.03 847 25.01 17.3 63.1 18 -7.3 18.9
18:10 1017 30.03 846 24.98 17 62.6 18 -7.1 19.2
18:15 1017 30.03 846 24.98 16.8 62.2 19 -7 19.3
18:20 1017 30.03 846 24.98 16.8 62.2 21 -5.4 22.3
18:25 1017 30.03 846 24.98 16.8 62.2 21 -5.9 21.4
18:30 1017 30.03 846 24.98 16.9 62.4 19 -6.6 20.1
18:35 1017 30.03 846 24.98 16.9 62.5 18 -7.4 18.7
18:40 1017 30.03 846 24.98 16.7 62 19 -7.1 19.3
18:45 1017 30.03 846 24.98 16.4 61.4 21 -6.2 20.9
18:50 1017 30.03 846 24.98 16.1 60.9 21 -6.4 20.5
18:55 1017 30.03 846 24.98 16 60.9 20 -6.7 19.9
19:00 1017 30.03 846 24.98 16.1 60.9 21 -6.4 20.4
19:05 1017 30.03 846 24.98 15.8 60.4 20 -7.1 19.1
19:10 1017 30.03 846 24.98 15.6 60.1 20 -7.2 19.1
19:15 1017 30.03 846 24.98 15.6 60 21 -6.3 20.6
19:20 1017 30.03 846 24.98 15.6 60 21 -6.6 20.2
19:25 1017 30.03 846 24.98 15.4 59.8 22 -5.9 21.4
19:30 1017 30.03 846 24.98 15.5 59.8 21 -6.8 19.8
19:35 1017 30.03 846 24.98 15.4 59.6 21 -6.6 20.2
19:40 1017 30.03 846 24.98 15.3 59.5 22 -6.3 20.7
19:45 1017 30.03 846 24.98 15.3 59.5 23 -5.9 21.3
19:50 1017 30.03 846 24.98 15.1 59.2 23 -5.7 21.7
19:55 1017 30.03 846 24.98 15 59.1 24 -5.4 22.2
20:00 1017 30.03 846 24.98 15 58.9 24 -5.5 22.2
20:05 1017 30.03 846 24.98 14.9 58.7 24 -5.2 22.6
20:10 1017 30.03 846 24.98 14.7 58.5 25 -4.9 23.2
20:15 1017 30.03 846 24.98 14.6 58.3 25 -4.9 23.1
20:20 1017 30.03 846 24.98 14.5 58 26 -4.8 23.4
20:25 1017 30.03 846 24.98 14.3 57.7 26 -4.7 23.6
20:30 1017 30.03 846 24.98 14.1 57.3 27 -4.5 24
20:35 1017 30.03 847 25.01 13.8 56.8 27 -4.8 23.3
20:40 1017 30.03 847 25.01 13.7 56.6 27 -4.7 23.5
20:45 1017 30.03 847 25.01 13.5 56.3 28 -4.4 24
20:50 1018 30.06 847 25.01 13.3 55.9 29 -4.2 24.5
20:55 1018 30.06 847 25.01 13.1 55.5 30 -3.8 25.1
21:00 1018 30.06 847 25.01 12.9 55.3 31 -3.8 25.2
21:05 1018 30.06 847 25.01 12.6 54.7 32 -3.6 25.5
21:10 1018 30.06 847 25.01 12.5 54.4 33 -3.5 25.7
21:15 1018 30.06 847 25.01 12.4 54.3 33 -3.4 26
21:20 1018 30.06 847 25.01 12.3 54.1 34 -3.2 26.2
21:25 1018 30.06 847 25.01 12.2 53.9 37 -2.1 28.1
21:30 1018 30.06 847 25.01 11.8 53.3 35 -3.1 26.5
21:35 1018 30.06 847 25.01 11.2 52.2 38 -2.4 27.7
21:40 1018 30.06 847 25.01 9.7 49.4 43 -2.3 27.9
21:45 1018 30.06 847 25.01 9.1 48.5 44 -2.4 27.7
21:50 1018 30.06 847 25.01 9 48.2 44 -2.4 27.7
21:55 1018 30.06 847 25.01 8.9 48 45 -2.4 27.6
22:00 1018 30.06 847 25.01 8.9 48 44 -2.7 27.2
22:05 1018 30.06 847 25.01 8.8 47.8 46 -2.3 27.8
22:10 1018 30.06 847 25.01 8.4 47.1 48 -2 28.4
22:15 1018 30.06 847 25.01 8 46.4 48 -2.4 27.7
22:20 1018 30.06 847 25.01 7.8 46 49 -2.3 27.8
22:25 1018 30.06 847 25.01 7.7 45.8 49 -2.4 27.8
22:30 1018 30.06 847 25.01 7.5 45.5 50 -2.3 27.9
22:35 1018 30.06 847 25.01 7.4 45.3 50 -2.4 27.7
22:40 1018 30.06 847 25.01 7.1 44.8 51 -2.3 27.8
22:45 1018 30.06 847 25.01 7 44.6 51 -2.4 27.7
22:50 1018 30.06 847 25.01 7 44.6 51 -2.5 27.5
22:55 1018 30.06 847 25.01 7 44.6 51 -2.3 27.8
23:00 1018 30.06 847 25.01 6.5 43.7 53 -2.2 28
23:05 1018 30.06 847 25.01 6.2 43.1 55 -2.1 28.3
23:10 1018 30.06 847 25.01 5.9 42.7 56 -2.3 27.9
23:15 1018 30.06 847 25.01 5.9 42.6 55 -2.3 27.8
23:20 1018 30.06 847 25.01 6.1 43 54 -2.5 27.5
23:25 1018 30.06 847 25.01 6.1 43 54 -2.4 27.7
23:30 1018 30.06 847 25.01 6 42.8 53 -2.8 26.9
23:35 1018 30.06 847 25.01 6.9 44.4 49 -3.2 26.3
23:40 1018 30.06 847 25.01 7.2 44.9 50 -2.6 27.4
23:45 1018 30.06 847 25.01 6.6 43.8 53 -2.2 28
23:50 1018 30.06 847 25.01 6.2 43.1 54 -2.3 27.8
23:55 1018 30.06 847 25.01 6 42.8 56 -2 28.3
24:00 1018 30.06 847 25.01 5.6 42.1 58 -2 28.4